createdAt,value
2023-04-25T00:01:18.090Z,9.75
2023-04-25T00:05:22.040Z,9.67
2023-04-25T00:09:25.267Z,9.64
2023-04-25T00:13:29.882Z,9.60
2023-04-25T00:17:32.761Z,9.55
2023-04-25T00:21:36.672Z,9.48
2023-04-25T00:25:39.617Z,9.44
2023-04-25T00:29:44.037Z,9.38
2023-04-25T00:33:46.932Z,9.28
2023-04-25T00:37:49.899Z,9.24
2023-04-25T00:41:55.798Z,9.30
2023-04-25T00:46:02.657Z,9.23
2023-04-25T00:50:06.033Z,9.22
2023-04-25T00:54:09.138Z,9.24
2023-04-25T00:58:12.382Z,9.27
2023-04-25T01:02:17.836Z,9.29
2023-04-25T01:06:21.117Z,9.48
2023-04-25T01:10:24.408Z,9.61
2023-04-25T01:14:27.895Z,9.71
2023-04-25T01:18:32.027Z,9.85
2023-04-25T01:22:39.837Z,9.89
2023-04-25T01:26:46.144Z,9.86
2023-04-25T01:30:49.815Z,9.84
2023-04-25T01:34:52.683Z,9.78
2023-04-25T01:38:57.327Z,9.71
2023-04-25T01:43:00.483Z,9.68
2023-04-25T01:47:03.602Z,9.71
2023-04-25T01:51:06.565Z,9.75
2023-04-25T01:55:12.226Z,9.85
2023-04-25T01:59:15.342Z,9.96
2023-04-25T02:03:18.682Z,10.08
2023-04-25T02:07:24.075Z,10.19
2023-04-25T02:11:28.573Z,10.31
2023-04-25T02:15:31.540Z,10.44
2023-04-25T02:19:34.599Z,10.54
2023-04-25T02:23:37.694Z,10.61
2023-04-25T02:27:42.239Z,10.64
2023-04-25T02:31:45.559Z,10.64
2023-04-25T02:35:48.814Z,10.67
2023-04-25T02:39:51.779Z,10.70
2023-04-25T02:43:55.775Z,10.74
2023-04-25T02:47:58.694Z,10.73
2023-04-25T02:52:01.784Z,10.71
2023-04-25T02:56:04.637Z,10.68
2023-04-25T03:00:12.965Z,10.66
2023-04-25T03:04:16.173Z,10.62
2023-04-25T03:08:19.628Z,10.58
2023-04-25T03:12:22.724Z,10.56
2023-04-25T03:16:27.205Z,10.55
2023-04-25T03:20:30.199Z,10.55
2023-04-25T03:24:33.107Z,10.54
2023-04-25T03:28:36.088Z,10.54
2023-04-25T03:32:40.724Z,10.56
2023-04-25T03:36:44.095Z,10.56
2023-04-25T03:40:46.865Z,10.54
2023-04-25T03:44:49.782Z,10.53
2023-04-25T03:48:53.790Z,10.52
2023-04-25T03:52:57.006Z,10.51
2023-04-25T03:56:59.689Z,10.53
2023-04-25T04:01:04.362Z,10.51
2023-04-25T04:05:09.317Z,10.47
2023-04-25T04:09:13.562Z,10.45
2023-04-25T04:13:16.676Z,10.44
2023-04-25T04:17:19.520Z,10.46
2023-04-25T04:21:24.045Z,10.42
2023-04-25T04:25:27.365Z,10.42
2023-04-25T04:29:30.378Z,10.42
2023-04-25T04:33:34.379Z,10.44
2023-04-25T04:37:39.193Z,10.46
2023-04-25T04:41:42.446Z,10.39
2023-04-25T04:45:45.775Z,10.35
2023-04-25T04:49:48.812Z,10.35
2023-04-25T04:53:53.410Z,10.32
2023-04-25T04:57:56.735Z,10.30
2023-04-25T05:01:59.757Z,10.29
2023-04-25T05:06:05.243Z,10.29
2023-04-25T05:10:10.892Z,10.27
2023-04-25T05:14:15.935Z,10.28
2023-04-25T05:18:18.801Z,10.29
2023-04-25T05:22:21.703Z,10.32
2023-04-25T05:26:26.476Z,10.41
2023-04-25T05:30:30.051Z,10.41
2023-04-25T05:34:33.110Z,10.35
2023-04-25T05:38:36.017Z,10.28
2023-04-25T05:42:40.379Z,10.21
2023-04-25T05:46:43.602Z,10.15
2023-04-25T05:50:46.664Z,10.07
2023-04-25T05:54:49.311Z,10.02
2023-04-25T05:58:53.644Z,10.00
2023-04-25T06:02:57.483Z,10.00
2023-04-25T06:07:00.767Z,10.03
2023-04-25T06:11:03.871Z,9.99
2023-04-25T06:15:20.027Z,10.01
2023-04-25T06:19:30.145Z,10.07
2023-04-25T06:23:32.941Z,10.30
2023-04-25T06:27:36.258Z,10.58
2023-04-25T06:31:40.826Z,10.86
2023-04-25T06:35:44.368Z,10.78
2023-04-25T06:39:47.590Z,10.66
2023-04-25T06:43:51.070Z,10.61
2023-04-25T06:47:56.144Z,10.67
2023-04-25T06:52:01.986Z,10.77
2023-04-25T06:56:05.782Z,11.06
2023-04-25T07:00:10.831Z,11.17
2023-04-25T07:04:15.983Z,10.95
2023-04-25T07:08:20.135Z,10.75
2023-04-25T07:12:23.429Z,10.49
2023-04-25T07:16:26.197Z,10.30
2023-04-25T07:20:32.214Z,10.07
2023-04-25T07:24:35.273Z,10.11
2023-04-25T07:28:38.555Z,10.06
2023-04-25T07:32:41.615Z,10.15
2023-04-25T07:36:46.132Z,10.18
2023-04-25T07:40:51.613Z,10.26
2023-04-25T07:44:54.789Z,10.45
2023-04-25T07:48:57.753Z,10.48
2023-04-25T07:53:01.883Z,10.54
2023-04-25T07:57:04.961Z,10.67
2023-04-25T08:01:12.081Z,10.75
2023-04-25T08:05:22.986Z,10.73
2023-04-25T08:09:35.740Z,10.79
2023-04-25T08:13:38.856Z,10.77
2023-04-25T08:17:47.560Z,10.62
2023-04-25T08:21:53.123Z,10.53
2023-04-25T08:25:57.410Z,10.54
2023-04-25T08:30:00.508Z,10.67
2023-04-25T08:34:03.848Z,10.76
2023-04-25T08:38:06.852Z,10.87
2023-04-25T08:42:11.405Z,10.99
2023-04-25T08:46:17.089Z,11.14
2023-04-25T08:50:27.440Z,11.43
2023-04-25T08:54:35.295Z,11.59
2023-04-25T08:58:42.335Z,11.62
2023-04-25T09:02:46.123Z,11.76
2023-04-25T09:06:49.419Z,11.73
2023-04-25T09:10:55.074Z,11.57
2023-04-25T09:15:10.903Z,11.64
2023-04-25T09:19:38.230Z,11.49
2023-04-25T09:23:44.042Z,11.44
2023-04-25T09:27:54.568Z,11.44
2023-04-25T09:32:16.216Z,11.49
2023-04-25T09:36:29.453Z,11.39
2023-04-25T09:40:33.121Z,11.46
2023-04-25T09:44:36.148Z,11.60
2023-04-25T09:48:50.262Z,11.56
2023-04-25T09:53:06.888Z,11.53
2023-04-25T09:57:14.521Z,11.52
2023-04-25T10:01:19.325Z,11.58
2023-04-25T10:05:25.983Z,11.51
2023-04-25T10:09:33.218Z,11.52
2023-04-25T10:13:37.986Z,11.54
2023-04-25T10:17:43.944Z,11.58
2023-04-25T10:21:55.564Z,11.61
2023-04-25T10:25:59.226Z,11.68
2023-04-25T10:30:07.651Z,11.80
2023-04-25T10:34:12.001Z,11.71
2023-04-25T10:38:17.692Z,11.64
2023-04-25T10:42:20.780Z,11.67
2023-04-25T10:46:27.292Z,11.60
2023-04-25T10:50:40.926Z,11.38
2023-04-25T10:54:49.983Z,11.28
2023-04-25T10:58:54.040Z,11.32
2023-04-25T11:03:02.430Z,11.49
2023-04-25T11:07:15.166Z,11.60
2023-04-25T11:11:20.772Z,11.60
2023-04-25T11:15:26.155Z,11.56
2023-04-25T11:19:30.220Z,11.48
2023-04-25T11:23:36.425Z,11.57
2023-04-25T11:27:53.296Z,11.62
2023-04-25T11:31:59.397Z,11.78
2023-04-25T11:36:04.296Z,11.91
2023-04-25T11:40:10.085Z,12.04
2023-04-25T11:44:17.576Z,12.05
2023-04-25T11:48:26.082Z,12.16
2023-04-25T11:52:41.747Z,12.43
2023-04-25T11:56:46.078Z,12.51
2023-04-25T12:00:51.107Z,12.24
2023-04-25T12:04:53.996Z,12.31
2023-04-25T12:09:05.353Z,12.44
2023-04-25T12:13:23.047Z,12.48
2023-04-25T12:17:27.634Z,12.34
2023-04-25T12:21:35.406Z,12.28
2023-04-25T12:25:44.754Z,12.30
2023-04-25T12:29:54.428Z,12.27
2023-04-25T12:33:59.449Z,12.17
2023-04-25T12:38:02.966Z,12.19
2023-04-25T12:42:08.594Z,12.17
2023-04-25T12:46:12.804Z,12.36
2023-04-25T12:50:16.780Z,12.47
2023-04-25T12:54:22.041Z,12.49
2023-04-25T12:58:26.107Z,12.49
2023-04-25T13:02:31.704Z,12.49
2023-04-25T13:06:37.161Z,12.55
2023-04-25T13:10:43.566Z,12.65
2023-04-25T13:14:46.625Z,12.82
2023-04-25T13:18:52.956Z,12.91
2023-04-25T13:22:58.494Z,12.82
2023-04-25T13:27:02.955Z,12.85
2023-04-25T13:31:05.849Z,12.85
2023-04-25T13:35:11.159Z,12.87
2023-04-25T13:39:15.986Z,12.58
2023-04-25T13:43:21.144Z,12.44
2023-04-25T13:47:27.961Z,12.26
2023-04-25T13:51:32.711Z,11.94
2023-04-25T13:55:38.582Z,11.54
2023-04-25T13:59:42.937Z,11.34
2023-04-25T14:03:46.716Z,11.20
2023-04-25T14:07:49.768Z,11.13
2023-04-25T14:11:54.746Z,11.10
2023-04-25T14:15:59.627Z,11.08
2023-04-25T14:20:02.725Z,11.00
2023-04-25T14:24:08.920Z,10.82
2023-04-25T14:28:13.710Z,10.61
2023-04-25T14:32:19.700Z,10.59
2023-04-25T14:36:22.825Z,10.49
2023-04-25T14:40:26.130Z,10.42
2023-04-25T14:44:30.556Z,10.36
2023-04-25T14:48:33.660Z,10.37
2023-04-25T14:52:37.666Z,10.36
2023-04-25T14:56:40.679Z,10.26
2023-04-25T15:00:45.686Z,10.28
2023-04-25T15:04:48.827Z,10.25
2023-04-25T15:08:51.912Z,10.19
2023-04-25T15:12:55.738Z,10.21
2023-04-25T15:17:00.327Z,10.15
2023-04-25T15:21:03.715Z,9.98
2023-04-25T15:25:07.896Z,9.82
2023-04-25T15:29:11.061Z,9.75
2023-04-25T15:33:16.303Z,9.61
2023-04-25T15:37:19.984Z,9.58
2023-04-25T15:41:26.022Z,9.51
2023-04-25T15:45:33.345Z,9.44
2023-04-25T15:49:38.039Z,9.44
2023-04-25T15:53:41.246Z,9.41
2023-04-25T15:57:44.494Z,9.42
2023-04-25T16:01:47.534Z,9.37
2023-04-25T16:05:53.080Z,9.31
2023-04-25T16:09:56.014Z,9.23
2023-04-25T16:13:59.300Z,9.13
2023-04-25T16:18:01.855Z,9.07
2023-04-25T16:22:07.024Z,9.02
2023-04-25T16:26:10.171Z,8.99
2023-04-25T16:30:14.356Z,8.98
2023-04-25T16:34:17.264Z,8.96
2023-04-25T16:38:22.153Z,8.95
2023-04-25T16:42:25.471Z,8.91
2023-04-25T16:46:32.052Z,8.87
2023-04-25T16:50:36.415Z,8.84
2023-04-25T16:54:41.306Z,8.77
2023-04-25T16:58:44.035Z,8.70
2023-04-25T17:02:47.648Z,8.65
2023-04-25T17:06:50.745Z,8.60
2023-04-25T17:10:57.684Z,8.57
2023-04-25T17:15:04.364Z,8.57
2023-04-25T17:19:07.727Z,8.55
2023-04-25T17:23:10.659Z,8.50
2023-04-25T17:27:17.649Z,8.46
2023-04-25T17:31:20.736Z,8.42
2023-04-25T17:35:23.873Z,8.40
2023-04-25T17:39:26.652Z,8.35
2023-04-25T17:43:33.287Z,8.29
2023-04-25T17:47:39.478Z,8.26
2023-04-25T17:51:42.518Z,8.24
2023-04-25T17:55:45.257Z,8.20
2023-04-25T17:59:49.519Z,8.16
2023-04-25T18:03:55.476Z,8.14
2023-04-25T18:07:58.636Z,8.13
2023-04-25T18:12:02.180Z,8.12
2023-04-25T18:16:06.901Z,8.09
2023-04-25T18:20:13.899Z,8.06
2023-04-25T18:24:18.199Z,8.04
2023-04-25T18:28:22.342Z,8.00
2023-04-25T18:32:28.593Z,8.00
2023-04-25T18:36:31.740Z,7.98
2023-04-25T18:40:35.195Z,7.94
2023-04-25T18:44:42.278Z,7.93
2023-04-25T18:48:47.480Z,7.93
2023-04-25T18:52:50.789Z,7.94
2023-04-25T18:56:55.939Z,7.93
2023-04-25T19:00:58.479Z,7.94
2023-04-25T19:05:03.010Z,7.93
2023-04-25T19:09:07.883Z,7.92
2023-04-25T19:13:12.968Z,7.90
2023-04-25T19:17:16.053Z,7.88
2023-04-25T19:21:21.548Z,7.87
2023-04-25T19:25:26.560Z,7.87
2023-04-25T19:29:33.361Z,7.87
2023-04-25T19:33:36.452Z,7.85
2023-04-25T19:37:46.787Z,7.85
2023-04-25T19:41:50.380Z,7.84
2023-04-25T19:45:58.867Z,7.82
2023-04-25T19:50:01.772Z,7.79
2023-04-25T19:54:08.640Z,7.79
2023-04-25T19:58:14.714Z,7.79
2023-04-25T20:02:21.128Z,7.80
2023-04-25T20:06:24.124Z,7.79
2023-04-25T20:10:28.740Z,7.79
2023-04-25T20:14:33.097Z,7.78
2023-04-25T20:18:36.319Z,7.80
2023-04-25T20:22:40.806Z,7.78
2023-04-25T20:26:45.061Z,7.78
2023-04-25T20:30:48.425Z,7.79
2023-04-25T20:34:53.874Z,7.82
2023-04-25T20:38:57.348Z,7.82
2023-04-25T20:43:05.599Z,7.85
2023-04-25T20:47:09.626Z,7.86
2023-04-25T20:51:13.099Z,7.88
2023-04-25T20:55:18.198Z,7.88
2023-04-25T20:59:25.724Z,7.91
2023-04-25T21:03:29.455Z,7.87
2023-04-25T21:07:32.717Z,7.84
2023-04-25T21:11:35.745Z,7.84
2023-04-25T21:15:41.563Z,7.85
2023-04-25T21:19:44.986Z,7.83
2023-04-25T21:23:50.844Z,7.82
2023-04-25T21:27:54.492Z,7.85
2023-04-25T21:31:58.796Z,7.84
2023-04-25T21:36:02.404Z,7.82
2023-04-25T21:40:06.442Z,7.80
2023-04-25T21:44:14.620Z,7.80
2023-04-25T21:48:18.882Z,7.76
2023-04-25T21:52:22.043Z,7.73
2023-04-25T21:56:25.017Z,7.69
2023-04-25T22:00:28.019Z,7.67
2023-04-25T22:04:32.871Z,7.66
2023-04-25T22:08:37.193Z,7.64
2023-04-25T22:12:40.674Z,7.58
2023-04-25T22:16:43.591Z,7.53
2023-04-25T22:20:48.198Z,7.47
2023-04-25T22:24:51.576Z,7.39
2023-04-25T22:28:54.680Z,7.31
2023-04-25T22:32:58.088Z,7.25
2023-04-25T22:37:02.498Z,7.21
2023-04-25T22:41:13.108Z,7.16
2023-04-25T22:45:16.233Z,7.13
2023-04-25T22:49:19.161Z,7.14
2023-04-25T22:53:23.508Z,7.14
2023-04-25T22:57:26.435Z,7.12
2023-04-25T23:01:29.638Z,7.11
2023-04-25T23:05:33.213Z,7.08
2023-04-25T23:09:37.522Z,7.08
2023-04-25T23:13:40.508Z,7.08
2023-04-25T23:17:43.725Z,7.06
2023-04-25T23:21:46.644Z,7.01
2023-04-25T23:25:50.769Z,6.95
2023-04-25T23:29:56.752Z,6.93
2023-04-25T23:33:59.889Z,6.90
2023-04-25T23:38:02.632Z,6.88
2023-04-25T23:42:07.230Z,6.84
2023-04-25T23:46:10.401Z,6.80
2023-04-25T23:50:13.439Z,6.77
2023-04-25T23:54:20.204Z,6.74
2023-04-25T23:58:24.676Z,6.70
